sensor_id;sensor_type;location;lat;lon;timestamp;P1;durP1;ratioP1;P2;durP2;ratioP2
3647;SDS011;1840;48.892;15.312;2023-03-15T00:02:18;2.30;;;1.93;;
3647;SDS011;1840;48.892;15.312;2023-03-15T00:04:47;2.83;;;2.20;;
3647;SDS011;1840;48.892;15.312;2023-03-15T00:07:15;2.70;;;2.20;;
3647;SDS011;1840;48.892;15.312;2023-03-15T00:09:43;2.43;;;2.00;;
3647;SDS011;1840;48.892;15.312;2023-03-15T00:12:11;3.70;;;2.77;;
3647;SDS011;1840;48.892;15.312;2023-03-15T00:14:39;2.90;;;2.40;;
3647;SDS011;1840;48.892;15.312;2023-03-15T00:17:08;2.73;;;2.20;;
3647;SDS011;1840;48.892;15.312;2023-03-15T00:19:37;2.87;;;2.27;;
3647;SDS011;1840;48.892;15.312;2023-03-15T00:22:05;3.03;;;2.30;;
3647;SDS011;1840;48.892;15.312;2023-03-15T00:24:34;3.03;;;2.00;;
3647;SDS011;1840;48.892;15.312;2023-03-15T00:27:02;2.57;;;2.13;;
3647;SDS011;1840;48.892;15.312;2023-03-15T00:29:31;3.80;;;2.10;;
3647;SDS011;1840;48.892;15.312;2023-03-15T00:31:59;2.93;;;2.17;;
3647;SDS011;1840;48.892;15.312;2023-03-15T00:34:28;4.50;;;2.73;;
3647;SDS011;1840;48.892;15.312;2023-03-15T00:36:58;2.83;;;2.30;;
3647;SDS011;1840;48.892;15.312;2023-03-15T00:39:27;3.70;;;2.10;;
3647;SDS011;1840;48.892;15.312;2023-03-15T00:41:55;3.50;;;2.23;;
3647;SDS011;1840;48.892;15.312;2023-03-15T00:44:23;3.13;;;2.33;;
3647;SDS011;1840;48.892;15.312;2023-03-15T00:46:51;4.10;;;3.00;;
3647;SDS011;1840;48.892;15.312;2023-03-15T00:49:19;5.63;;;2.90;;
3647;SDS011;1840;48.892;15.312;2023-03-15T00:51:48;4.43;;;2.77;;
3647;SDS011;1840;48.892;15.312;2023-03-15T00:54:16;4.50;;;2.80;;
3647;SDS011;1840;48.892;15.312;2023-03-15T00:56:44;4.47;;;2.80;;
3647;SDS011;1840;48.892;15.312;2023-03-15T00:59:12;3.73;;;2.80;;
3647;SDS011;1840;48.892;15.312;2023-03-15T01:01:40;3.63;;;2.60;;
3647;SDS011;1840;48.892;15.312;2023-03-15T01:04:10;6.77;;;3.27;;
3647;SDS011;1840;48.892;15.312;2023-03-15T01:06:38;6.40;;;2.43;;
3647;SDS011;1840;48.892;15.312;2023-03-15T01:09:08;3.63;;;2.67;;
3647;SDS011;1840;48.892;15.312;2023-03-15T01:11:36;4.60;;;2.47;;
3647;SDS011;1840;48.892;15.312;2023-03-15T01:14:04;3.10;;;2.27;;
3647;SDS011;1840;48.892;15.312;2023-03-15T01:16:34;3.33;;;2.30;;
3647;SDS011;1840;48.892;15.312;2023-03-15T01:19:02;3.20;;;2.77;;
3647;SDS011;1840;48.892;15.312;2023-03-15T01:21:30;3.97;;;2.43;;
3647;SDS011;1840;48.892;15.312;2023-03-15T01:23:58;3.13;;;2.40;;
3647;SDS011;1840;48.892;15.312;2023-03-15T01:26:27;7.67;;;2.83;;
3647;SDS011;1840;48.892;15.312;2023-03-15T01:28:55;3.33;;;2.87;;
3647;SDS011;1840;48.892;15.312;2023-03-15T01:31:24;6.53;;;2.80;;
3647;SDS011;1840;48.892;15.312;2023-03-15T01:33:54;5.50;;;2.90;;
3647;SDS011;1840;48.892;15.312;2023-03-15T01:36:26;3.73;;;2.87;;
3647;SDS011;1840;48.892;15.312;2023-03-15T01:38:54;4.40;;;2.80;;
3647;SDS011;1840;48.892;15.312;2023-03-15T01:41:23;4.00;;;3.07;;
3647;SDS011;1840;48.892;15.312;2023-03-15T01:43:53;3.80;;;2.60;;
3647;SDS011;1840;48.892;15.312;2023-03-15T01:46:25;5.23;;;3.60;;
3647;SDS011;1840;48.892;15.312;2023-03-15T01:48:56;6.20;;;3.73;;
3647;SDS011;1840;48.892;15.312;2023-03-15T01:51:31;4.20;;;3.20;;
3647;SDS011;1840;48.892;15.312;2023-03-15T01:54:03;7.13;;;3.80;;
3647;SDS011;1840;48.892;15.312;2023-03-15T01:56:35;8.40;;;3.47;;
3647;SDS011;1840;48.892;15.312;2023-03-15T01:59:09;4.83;;;3.40;;
3647;SDS011;1840;48.892;15.312;2023-03-15T02:01:42;4.73;;;3.37;;
3647;SDS011;1840;48.892;15.312;2023-03-15T02:04:11;4.40;;;3.60;;
3647;SDS011;1840;48.892;15.312;2023-03-15T02:06:43;6.30;;;3.63;;
3647;SDS011;1840;48.892;15.312;2023-03-15T02:09:16;6.17;;;3.43;;
3647;SDS011;1840;48.892;15.312;2023-03-15T02:11:47;5.90;;;3.37;;
3647;SDS011;1840;48.892;15.312;2023-03-15T02:14:16;7.23;;;3.20;;
3647;SDS011;1840;48.892;15.312;2023-03-15T02:16:45;4.90;;;3.50;;
3647;SDS011;1840;48.892;15.312;2023-03-15T02:19:17;8.07;;;3.10;;
3647;SDS011;1840;48.892;15.312;2023-03-15T02:21:57;9.33;;;4.50;;
3647;SDS011;1840;48.892;15.312;2023-03-15T02:24:33;13.33;;;3.80;;
3647;SDS011;1840;48.892;15.312;2023-03-15T02:27:11;10.20;;;3.80;;
3647;SDS011;1840;48.892;15.312;2023-03-15T02:29:41;6.23;;;3.50;;
3647;SDS011;1840;48.892;15.312;2023-03-15T02:32:09;5.53;;;2.90;;
3647;SDS011;1840;48.892;15.312;2023-03-15T02:34:38;16.80;;;4.30;;
3647;SDS011;1840;48.892;15.312;2023-03-15T02:37:06;7.57;;;3.13;;
3647;SDS011;1840;48.892;15.312;2023-03-15T02:39:34;11.63;;;5.27;;
3647;SDS011;1840;48.892;15.312;2023-03-15T02:42:02;6.23;;;3.43;;
3647;SDS011;1840;48.892;15.312;2023-03-15T02:44:30;5.80;;;3.20;;
3647;SDS011;1840;48.892;15.312;2023-03-15T02:47:02;6.77;;;3.03;;
3647;SDS011;1840;48.892;15.312;2023-03-15T02:49:34;8.80;;;3.30;;
3647;SDS011;1840;48.892;15.312;2023-03-15T02:52:06;15.03;;;3.57;;
3647;SDS011;1840;48.892;15.312;2023-03-15T02:54:34;7.90;;;3.87;;
3647;SDS011;1840;48.892;15.312;2023-03-15T02:57:04;11.40;;;3.77;;
3647;SDS011;1840;48.892;15.312;2023-03-15T02:59:32;18.83;;;3.57;;
3647;SDS011;1840;48.892;15.312;2023-03-15T03:02:02;10.53;;;3.70;;
3647;SDS011;1840;48.892;15.312;2023-03-15T03:04:30;10.07;;;3.90;;
3647;SDS011;1840;48.892;15.312;2023-03-15T03:06:58;13.50;;;3.90;;
3647;SDS011;1840;48.892;15.312;2023-03-15T03:09:26;11.33;;;4.03;;
3647;SDS011;1840;48.892;15.312;2023-03-15T03:11:54;7.27;;;3.97;;
3647;SDS011;1840;48.892;15.312;2023-03-15T03:14:22;12.70;;;4.50;;
3647;SDS011;1840;48.892;15.312;2023-03-15T03:16:51;11.33;;;4.50;;
3647;SDS011;1840;48.892;15.312;2023-03-15T03:19:21;16.40;;;4.20;;
3647;SDS011;1840;48.892;15.312;2023-03-15T03:21:51;7.63;;;3.87;;
3647;SDS011;1840;48.892;15.312;2023-03-15T03:24:19;12.00;;;3.90;;
3647;SDS011;1840;48.892;15.312;2023-03-15T03:26:47;9.83;;;4.13;;
3647;SDS011;1840;48.892;15.312;2023-03-15T03:29:15;11.57;;;4.50;;
3647;SDS011;1840;48.892;15.312;2023-03-15T03:31:43;9.43;;;4.07;;
3647;SDS011;1840;48.892;15.312;2023-03-15T03:34:11;13.77;;;4.30;;
3647;SDS011;1840;48.892;15.312;2023-03-15T03:36:42;7.20;;;3.90;;
3647;SDS011;1840;48.892;15.312;2023-03-15T03:39:10;9.93;;;4.10;;
3647;SDS011;1840;48.892;15.312;2023-03-15T03:41:38;12.30;;;3.67;;
3647;SDS011;1840;48.892;15.312;2023-03-15T03:44:06;15.80;;;5.10;;
3647;SDS011;1840;48.892;15.312;2023-03-15T03:46:35;27.07;;;4.80;;
3647;SDS011;1840;48.892;15.312;2023-03-15T03:49:03;11.37;;;4.07;;
3647;SDS011;1840;48.892;15.312;2023-03-15T03:51:31;13.67;;;4.13;;
3647;SDS011;1840;48.892;15.312;2023-03-15T03:54:01;10.00;;;3.83;;
3647;SDS011;1840;48.892;15.312;2023-03-15T03:56:29;10.60;;;4.50;;
3647;SDS011;1840;48.892;15.312;2023-03-15T03:58:57;10.40;;;3.60;;
3647;SDS011;1840;48.892;15.312;2023-03-15T04:01:26;10.23;;;2.60;;
3647;SDS011;1840;48.892;15.312;2023-03-15T04:03:54;5.17;;;2.63;;
3647;SDS011;1840;48.892;15.312;2023-03-15T04:06:22;12.07;;;2.53;;
3647;SDS011;1840;48.892;15.312;2023-03-15T04:08:50;4.60;;;2.20;;
3647;SDS011;1840;48.892;15.312;2023-03-15T04:11:19;10.93;;;2.27;;
3647;SDS011;1840;48.892;15.312;2023-03-15T04:13:51;13.13;;;2.43;;
3647;SDS011;1840;48.892;15.312;2023-03-15T04:16:20;16.03;;;3.80;;
3647;SDS011;1840;48.892;15.312;2023-03-15T04:18:50;9.57;;;2.40;;
3647;SDS011;1840;48.892;15.312;2023-03-15T04:21:21;7.67;;;2.30;;
3647;SDS011;1840;48.892;15.312;2023-03-15T04:23:49;14.53;;;2.70;;
3647;SDS011;1840;48.892;15.312;2023-03-15T04:26:17;8.43;;;2.27;;
3647;SDS011;1840;48.892;15.312;2023-03-15T04:28:47;6.20;;;2.27;;
3647;SDS011;1840;48.892;15.312;2023-03-15T04:31:14;7.30;;;2.33;;
3647;SDS011;1840;48.892;15.312;2023-03-15T04:33:43;6.73;;;2.13;;
3647;SDS011;1840;48.892;15.312;2023-03-15T04:36:11;16.50;;;2.63;;
3647;SDS011;1840;48.892;15.312;2023-03-15T04:38:43;12.73;;;3.37;;
3647;SDS011;1840;48.892;15.312;2023-03-15T04:41:12;9.17;;;1.70;;
3647;SDS011;1840;48.892;15.312;2023-03-15T04:43:42;6.50;;;2.00;;
3647;SDS011;1840;48.892;15.312;2023-03-15T04:46:10;5.77;;;2.47;;
3647;SDS011;1840;48.892;15.312;2023-03-15T04:48:39;14.77;;;2.40;;
3647;SDS011;1840;48.892;15.312;2023-03-15T04:51:07;7.43;;;2.47;;
3647;SDS011;1840;48.892;15.312;2023-03-15T04:53:36;8.80;;;2.43;;
3647;SDS011;1840;48.892;15.312;2023-03-15T04:56:05;24.33;;;2.03;;
3647;SDS011;1840;48.892;15.312;2023-03-15T04:58:33;7.60;;;1.80;;
3647;SDS011;1840;48.892;15.312;2023-03-15T05:01:03;16.90;;;2.37;;
3647;SDS011;1840;48.892;15.312;2023-03-15T05:03:31;8.30;;;1.97;;
3647;SDS011;1840;48.892;15.312;2023-03-15T05:06:00;11.60;;;1.80;;
3647;SDS011;1840;48.892;15.312;2023-03-15T05:08:33;6.97;;;2.17;;
3647;SDS011;1840;48.892;15.312;2023-03-15T05:11:02;6.30;;;1.90;;
3647;SDS011;1840;48.892;15.312;2023-03-15T05:13:30;7.27;;;1.90;;
3647;SDS011;1840;48.892;15.312;2023-03-15T05:15:58;3.20;;;1.43;;
3647;SDS011;1840;48.892;15.312;2023-03-15T05:18:28;9.67;;;1.97;;
3647;SDS011;1840;48.892;15.312;2023-03-15T05:20:56;10.50;;;4.23;;
3647;SDS011;1840;48.892;15.312;2023-03-15T05:23:24;6.07;;;2.20;;
3647;SDS011;1840;48.892;15.312;2023-03-15T05:25:53;6.40;;;2.00;;
3647;SDS011;1840;48.892;15.312;2023-03-15T05:28:22;7.07;;;1.67;;
3647;SDS011;1840;48.892;15.312;2023-03-15T05:30:51;10.33;;;2.70;;
3647;SDS011;1840;48.892;15.312;2023-03-15T05:33:20;8.53;;;2.47;;
3647;SDS011;1840;48.892;15.312;2023-03-15T05:35:51;18.93;;;2.43;;
3647;SDS011;1840;48.892;15.312;2023-03-15T05:38:22;6.20;;;1.83;;
3647;SDS011;1840;48.892;15.312;2023-03-15T05:40:52;7.90;;;2.40;;
3647;SDS011;1840;48.892;15.312;2023-03-15T05:43:21;15.20;;;3.40;;
3647;SDS011;1840;48.892;15.312;2023-03-15T05:45:50;8.43;;;1.93;;
3647;SDS011;1840;48.892;15.312;2023-03-15T05:48:18;20.27;;;2.90;;
3647;SDS011;1840;48.892;15.312;2023-03-15T05:50:47;7.17;;;1.70;;
3647;SDS011;1840;48.892;15.312;2023-03-15T05:53:16;8.33;;;1.73;;
3647;SDS011;1840;48.892;15.312;2023-03-15T05:55:44;6.83;;;1.90;;
3647;SDS011;1840;48.892;15.312;2023-03-15T05:58:12;7.83;;;2.10;;
3647;SDS011;1840;48.892;15.312;2023-03-15T06:00:40;5.57;;;1.90;;
3647;SDS011;1840;48.892;15.312;2023-03-15T06:03:08;11.13;;;2.27;;
3647;SDS011;1840;48.892;15.312;2023-03-15T06:05:37;12.47;;;1.73;;
3647;SDS011;1840;48.892;15.312;2023-03-15T06:08:06;8.90;;;1.80;;
3647;SDS011;1840;48.892;15.312;2023-03-15T06:10:35;5.90;;;1.83;;
3647;SDS011;1840;48.892;15.312;2023-03-15T06:13:03;22.13;;;2.07;;
3647;SDS011;1840;48.892;15.312;2023-03-15T06:15:32;8.67;;;2.47;;
3647;SDS011;1840;48.892;15.312;2023-03-15T06:18:00;6.63;;;2.20;;
3647;SDS011;1840;48.892;15.312;2023-03-15T06:20:28;7.20;;;2.03;;
3647;SDS011;1840;48.892;15.312;2023-03-15T06:22:57;12.20;;;3.60;;
3647;SDS011;1840;48.892;15.312;2023-03-15T06:25:25;5.63;;;1.63;;
3647;SDS011;1840;48.892;15.312;2023-03-15T06:27:55;9.93;;;2.50;;
3647;SDS011;1840;48.892;15.312;2023-03-15T06:30:23;11.63;;;1.97;;
3647;SDS011;1840;48.892;15.312;2023-03-15T06:32:53;8.43;;;1.53;;
3647;SDS011;1840;48.892;15.312;2023-03-15T06:35:21;6.07;;;2.03;;
3647;SDS011;1840;48.892;15.312;2023-03-15T06:37:49;7.67;;;2.93;;
3647;SDS011;1840;48.892;15.312;2023-03-15T06:40:18;13.43;;;2.30;;
3647;SDS011;1840;48.892;15.312;2023-03-15T06:42:46;6.57;;;1.70;;
3647;SDS011;1840;48.892;15.312;2023-03-15T06:45:16;8.57;;;2.43;;
3647;SDS011;1840;48.892;15.312;2023-03-15T06:47:44;13.50;;;2.20;;
3647;SDS011;1840;48.892;15.312;2023-03-15T06:50:12;14.10;;;2.50;;
3647;SDS011;1840;48.892;15.312;2023-03-15T06:52:40;14.13;;;2.17;;
3647;SDS011;1840;48.892;15.312;2023-03-15T06:55:09;8.30;;;2.27;;
3647;SDS011;1840;48.892;15.312;2023-03-15T06:57:42;11.77;;;1.93;;
3647;SDS011;1840;48.892;15.312;2023-03-15T07:00:11;8.00;;;2.10;;
3647;SDS011;1840;48.892;15.312;2023-03-15T07:02:41;8.07;;;1.80;;
3647;SDS011;1840;48.892;15.312;2023-03-15T07:05:09;11.77;;;2.67;;
3647;SDS011;1840;48.892;15.312;2023-03-15T07:07:37;4.53;;;2.40;;
3647;SDS011;1840;48.892;15.312;2023-03-15T07:10:06;12.97;;;2.30;;
3647;SDS011;1840;48.892;15.312;2023-03-15T07:12:34;6.20;;;2.40;;
3647;SDS011;1840;48.892;15.312;2023-03-15T07:15:02;13.40;;;2.67;;
3647;SDS011;1840;48.892;15.312;2023-03-15T07:17:32;5.90;;;1.97;;
3647;SDS011;1840;48.892;15.312;2023-03-15T07:20:02;9.90;;;2.60;;
3647;SDS011;1840;48.892;15.312;2023-03-15T07:22:31;8.90;;;2.27;;
3647;SDS011;1840;48.892;15.312;2023-03-15T07:25:00;8.53;;;2.13;;
3647;SDS011;1840;48.892;15.312;2023-03-15T07:27:28;11.73;;;2.30;;
3647;SDS011;1840;48.892;15.312;2023-03-15T07:29:56;9.23;;;2.10;;
3647;SDS011;1840;48.892;15.312;2023-03-15T07:32:27;5.97;;;1.80;;
3647;SDS011;1840;48.892;15.312;2023-03-15T07:34:56;11.47;;;3.00;;
3647;SDS011;1840;48.892;15.312;2023-03-15T07:37:27;13.40;;;2.03;;
3647;SDS011;1840;48.892;15.312;2023-03-15T07:39:55;4.30;;;1.50;;
3647;SDS011;1840;48.892;15.312;2023-03-15T07:42:26;11.30;;;2.27;;
3647;SDS011;1840;48.892;15.312;2023-03-15T07:44:54;7.50;;;2.23;;
3647;SDS011;1840;48.892;15.312;2023-03-15T07:47:22;12.13;;;3.37;;
3647;SDS011;1840;48.892;15.312;2023-03-15T07:49:50;7.87;;;2.27;;
3647;SDS011;1840;48.892;15.312;2023-03-15T07:52:19;8.90;;;3.20;;
3647;SDS011;1840;48.892;15.312;2023-03-15T07:54:48;14.00;;;2.93;;
3647;SDS011;1840;48.892;15.312;2023-03-15T07:57:17;8.90;;;3.00;;
3647;SDS011;1840;48.892;15.312;2023-03-15T07:59:45;15.27;;;2.90;;
3647;SDS011;1840;48.892;15.312;2023-03-15T08:02:13;14.80;;;2.93;;
3647;SDS011;1840;48.892;15.312;2023-03-15T08:04:41;17.60;;;3.80;;
3647;SDS011;1840;48.892;15.312;2023-03-15T08:07:10;11.47;;;2.60;;
3647;SDS011;1840;48.892;15.312;2023-03-15T08:09:38;9.33;;;2.90;;
3647;SDS011;1840;48.892;15.312;2023-03-15T08:12:08;10.63;;;3.10;;
3647;SDS011;1840;48.892;15.312;2023-03-15T08:14:37;11.07;;;2.63;;
3647;SDS011;1840;48.892;15.312;2023-03-15T08:17:05;12.40;;;2.93;;
3647;SDS011;1840;48.892;15.312;2023-03-15T08:19:38;11.00;;;2.07;;
3647;SDS011;1840;48.892;15.312;2023-03-15T08:22:06;12.83;;;2.40;;
3647;SDS011;1840;48.892;15.312;2023-03-15T08:24:35;9.27;;;2.27;;
3647;SDS011;1840;48.892;15.312;2023-03-15T08:27:04;7.80;;;2.20;;
3647;SDS011;1840;48.892;15.312;2023-03-15T08:29:33;6.13;;;2.00;;
3647;SDS011;1840;48.892;15.312;2023-03-15T08:32:02;7.20;;;2.57;;
3647;SDS011;1840;48.892;15.312;2023-03-15T08:34:32;9.70;;;2.67;;
3647;SDS011;1840;48.892;15.312;2023-03-15T08:37:02;9.97;;;2.03;;
3647;SDS011;1840;48.892;15.312;2023-03-15T08:39:30;6.90;;;2.33;;
3647;SDS011;1840;48.892;15.312;2023-03-15T08:42:01;5.47;;;2.27;;
3647;SDS011;1840;48.892;15.312;2023-03-15T08:44:29;10.63;;;1.83;;
3647;SDS011;1840;48.892;15.312;2023-03-15T08:47:03;7.00;;;2.13;;
3647;SDS011;1840;48.892;15.312;2023-03-15T08:49:31;10.53;;;2.30;;
3647;SDS011;1840;48.892;15.312;2023-03-15T08:51:59;6.23;;;2.03;;
3647;SDS011;1840;48.892;15.312;2023-03-15T08:54:29;4.03;;;2.00;;
3647;SDS011;1840;48.892;15.312;2023-03-15T08:56:58;7.13;;;2.47;;
3647;SDS011;1840;48.892;15.312;2023-03-15T08:59:27;8.73;;;3.03;;
3647;SDS011;1840;48.892;15.312;2023-03-15T09:01:58;10.77;;;3.00;;
3647;SDS011;1840;48.892;15.312;2023-03-15T09:04:28;7.20;;;1.97;;
3647;SDS011;1840;48.892;15.312;2023-03-15T09:06:56;13.57;;;2.87;;
3647;SDS011;1840;48.892;15.312;2023-03-15T09:09:26;8.50;;;2.33;;
3647;SDS011;1840;48.892;15.312;2023-03-15T09:11:54;10.10;;;2.73;;
3647;SDS011;1840;48.892;15.312;2023-03-15T09:14:22;10.93;;;2.80;;
3647;SDS011;1840;48.892;15.312;2023-03-15T09:16:51;12.53;;;2.80;;
3647;SDS011;1840;48.892;15.312;2023-03-15T09:19:20;7.73;;;2.47;;
3647;SDS011;1840;48.892;15.312;2023-03-15T09:21:49;9.43;;;1.87;;
3647;SDS011;1840;48.892;15.312;2023-03-15T09:24:18;6.80;;;2.10;;
3647;SDS011;1840;48.892;15.312;2023-03-15T09:26:46;8.50;;;2.50;;
3647;SDS011;1840;48.892;15.312;2023-03-15T09:29:15;7.93;;;2.97;;
3647;SDS011;1840;48.892;15.312;2023-03-15T09:31:44;5.07;;;1.90;;
3647;SDS011;1840;48.892;15.312;2023-03-15T09:34:13;8.87;;;2.83;;
3647;SDS011;1840;48.892;15.312;2023-03-15T09:36:43;9.40;;;3.00;;
3647;SDS011;1840;48.892;15.312;2023-03-15T09:39:20;8.87;;;2.33;;
3647;SDS011;1840;48.892;15.312;2023-03-15T09:41:51;7.30;;;2.43;;
3647;SDS011;1840;48.892;15.312;2023-03-15T09:44:31;7.20;;;2.43;;
3647;SDS011;1840;48.892;15.312;2023-03-15T09:47:09;11.20;;;2.50;;
3647;SDS011;1840;48.892;15.312;2023-03-15T09:49:56;8.57;;;2.10;;
3647;SDS011;1840;48.892;15.312;2023-03-15T09:53:30;10.17;;;2.40;;
3647;SDS011;1840;48.892;15.312;2023-03-15T09:56:04;11.30;;;2.10;;
3647;SDS011;1840;48.892;15.312;2023-03-15T09:58:45;6.40;;;2.57;;
3647;SDS011;1840;48.892;15.312;2023-03-15T10:01:16;10.43;;;2.87;;
3647;SDS011;1840;48.892;15.312;2023-03-15T10:03:48;8.23;;;1.80;;
3647;SDS011;1840;48.892;15.312;2023-03-15T10:06:18;5.93;;;1.90;;
3647;SDS011;1840;48.892;15.312;2023-03-15T10:08:53;10.70;;;2.20;;
3647;SDS011;1840;48.892;15.312;2023-03-15T10:11:26;9.23;;;2.10;;
3647;SDS011;1840;48.892;15.312;2023-03-15T10:14:05;12.63;;;2.23;;
3647;SDS011;1840;48.892;15.312;2023-03-15T10:16:45;9.73;;;2.50;;
3647;SDS011;1840;48.892;15.312;2023-03-15T10:19:21;8.00;;;2.27;;
3647;SDS011;1840;48.892;15.312;2023-03-15T10:21:57;7.13;;;2.07;;
3647;SDS011;1840;48.892;15.312;2023-03-15T10:24:32;5.93;;;1.83;;
3647;SDS011;1840;48.892;15.312;2023-03-15T10:27:12;6.43;;;2.10;;
3647;SDS011;1840;48.892;15.312;2023-03-15T10:29:43;8.67;;;2.57;;
3647;SDS011;1840;48.892;15.312;2023-03-15T10:32:14;12.73;;;2.30;;
3647;SDS011;1840;48.892;15.312;2023-03-15T10:34:44;8.97;;;3.00;;
3647;SDS011;1840;48.892;15.312;2023-03-15T10:37:16;13.27;;;2.93;;
3647;SDS011;1840;48.892;15.312;2023-03-15T10:39:45;7.33;;;1.90;;
3647;SDS011;1840;48.892;15.312;2023-03-15T10:42:25;10.10;;;2.60;;
3647;SDS011;1840;48.892;15.312;2023-03-15T10:44:55;6.97;;;1.63;;
3647;SDS011;1840;48.892;15.312;2023-03-15T10:47:25;9.77;;;2.60;;
3647;SDS011;1840;48.892;15.312;2023-03-15T10:49:55;5.90;;;2.03;;
3647;SDS011;1840;48.892;15.312;2023-03-15T10:52:31;11.57;;;2.30;;
3647;SDS011;1840;48.892;15.312;2023-03-15T10:55:05;10.53;;;2.60;;
3647;SDS011;1840;48.892;15.312;2023-03-15T10:57:41;7.67;;;1.97;;
3647;SDS011;1840;48.892;15.312;2023-03-15T11:00:22;7.20;;;2.30;;
3647;SDS011;1840;48.892;15.312;2023-03-15T11:03:02;11.03;;;2.70;;
3647;SDS011;1840;48.892;15.312;2023-03-15T11:05:37;7.10;;;2.07;;
3647;SDS011;1840;48.892;15.312;2023-03-15T11:08:10;7.00;;;1.60;;
3647;SDS011;1840;48.892;15.312;2023-03-15T11:10:41;8.90;;;2.80;;
3647;SDS011;1840;48.892;15.312;2023-03-15T11:13:13;3.90;;;1.67;;
3647;SDS011;1840;48.892;15.312;2023-03-15T11:15:48;5.53;;;1.50;;
3647;SDS011;1840;48.892;15.312;2023-03-15T11:18:27;6.53;;;1.63;;
3647;SDS011;1840;48.892;15.312;2023-03-15T11:20:59;4.77;;;1.50;;
3647;SDS011;1840;48.892;15.312;2023-03-15T11:23:33;5.17;;;1.60;;
3647;SDS011;1840;48.892;15.312;2023-03-15T11:26:04;4.50;;;1.60;;
3647;SDS011;1840;48.892;15.312;2023-03-15T11:28:41;6.93;;;1.87;;
3647;SDS011;1840;48.892;15.312;2023-03-15T11:31:15;6.10;;;2.03;;
3647;SDS011;1840;48.892;15.312;2023-03-15T11:33:44;5.30;;;1.70;;
3647;SDS011;1840;48.892;15.312;2023-03-15T11:36:19;4.90;;;1.27;;
3647;SDS011;1840;48.892;15.312;2023-03-15T11:38:53;7.70;;;1.80;;
3647;SDS011;1840;48.892;15.312;2023-03-15T11:41:26;4.03;;;1.70;;
3647;SDS011;1840;48.892;15.312;2023-03-15T11:44:05;3.40;;;1.50;;
3647;SDS011;1840;48.892;15.312;2023-03-15T11:46:46;9.00;;;1.80;;
3647;SDS011;1840;48.892;15.312;2023-03-15T11:49:21;3.83;;;1.50;;
3647;SDS011;1840;48.892;15.312;2023-03-15T11:52:00;3.90;;;1.30;;
3647;SDS011;1840;48.892;15.312;2023-03-15T11:54:31;4.70;;;1.27;;
3647;SDS011;1840;48.892;15.312;2023-03-15T11:57:00;8.73;;;2.37;;
3647;SDS011;1840;48.892;15.312;2023-03-15T11:59:34;3.70;;;1.90;;
3647;SDS011;1840;48.892;15.312;2023-03-15T12:02:33;3.13;;;1.43;;
3647;SDS011;1840;48.892;15.312;2023-03-15T12:05:39;4.50;;;1.53;;
3647;SDS011;1840;48.892;15.312;2023-03-15T12:08:16;2.87;;;1.30;;
3647;SDS011;1840;48.892;15.312;2023-03-15T12:10:50;6.97;;;1.90;;
3647;SDS011;1840;48.892;15.312;2023-03-15T12:13:23;4.77;;;1.60;;
3647;SDS011;1840;48.892;15.312;2023-03-15T12:15:55;5.23;;;1.93;;
3647;SDS011;1840;48.892;15.312;2023-03-15T12:18:26;5.57;;;2.07;;
3647;SDS011;1840;48.892;15.312;2023-03-15T12:21:11;6.93;;;2.23;;
3647;SDS011;1840;48.892;15.312;2023-03-15T12:23:43;6.40;;;1.73;;
3647;SDS011;1840;48.892;15.312;2023-03-15T12:26:30;4.57;;;1.73;;
3647;SDS011;1840;48.892;15.312;2023-03-15T12:29:20;7.17;;;1.80;;
3647;SDS011;1840;48.892;15.312;2023-03-15T12:31:56;5.33;;;2.00;;
3647;SDS011;1840;48.892;15.312;2023-03-15T12:34:34;5.10;;;2.03;;
3647;SDS011;1840;48.892;15.312;2023-03-15T12:37:13;3.37;;;1.40;;
3647;SDS011;1840;48.892;15.312;2023-03-15T12:39:46;7.97;;;2.63;;
3647;SDS011;1840;48.892;15.312;2023-03-15T12:45:35;5.77;;;1.63;;
3647;SDS011;1840;48.892;15.312;2023-03-15T12:50:57;6.80;;;2.10;;
3647;SDS011;1840;48.892;15.312;2023-03-15T12:53:45;7.10;;;2.00;;
3647;SDS011;1840;48.892;15.312;2023-03-15T12:59:18;4.67;;;1.70;;
3647;SDS011;1840;48.892;15.312;2023-03-15T13:01:58;6.40;;;2.30;;
3647;SDS011;1840;48.892;15.312;2023-03-15T13:04:27;8.73;;;2.27;;
3647;SDS011;1840;48.892;15.312;2023-03-15T13:07:03;6.23;;;1.83;;
3647;SDS011;1840;48.892;15.312;2023-03-15T13:09:49;4.73;;;2.00;;
3647;SDS011;1840;48.892;15.312;2023-03-15T13:12:31;5.53;;;1.77;;
3647;SDS011;1840;48.892;15.312;2023-03-15T13:15:08;5.07;;;1.50;;
3647;SDS011;1840;48.892;15.312;2023-03-15T13:17:41;6.90;;;1.83;;
3647;SDS011;1840;48.892;15.312;2023-03-15T13:20:33;2.87;;;1.60;;
3647;SDS011;1840;48.892;15.312;2023-03-15T13:26:37;5.43;;;1.80;;
3647;SDS011;1840;48.892;15.312;2023-03-15T13:29:25;8.90;;;2.10;;
3647;SDS011;1840;48.892;15.312;2023-03-15T13:32:00;10.33;;;1.73;;
3647;SDS011;1840;48.892;15.312;2023-03-15T13:34:34;5.63;;;1.60;;
3647;SDS011;1840;48.892;15.312;2023-03-15T13:37:03;7.30;;;1.93;;
3647;SDS011;1840;48.892;15.312;2023-03-15T13:39:50;5.97;;;2.10;;
3647;SDS011;1840;48.892;15.312;2023-03-15T13:42:22;6.03;;;1.90;;
3647;SDS011;1840;48.892;15.312;2023-03-15T13:45:01;7.03;;;2.20;;
3647;SDS011;1840;48.892;15.312;2023-03-15T13:47:35;8.27;;;2.10;;
3647;SDS011;1840;48.892;15.312;2023-03-15T13:50:04;5.83;;;1.67;;
3647;SDS011;1840;48.892;15.312;2023-03-15T13:52:33;6.63;;;1.87;;
3647;SDS011;1840;48.892;15.312;2023-03-15T13:55:01;7.27;;;1.93;;
3647;SDS011;1840;48.892;15.312;2023-03-15T13:57:32;5.70;;;2.17;;
3647;SDS011;1840;48.892;15.312;2023-03-15T14:00:01;7.07;;;2.30;;
3647;SDS011;1840;48.892;15.312;2023-03-15T14:02:37;3.90;;;1.77;;
3647;SDS011;1840;48.892;15.312;2023-03-15T14:05:14;8.90;;;2.27;;
3647;SDS011;1840;48.892;15.312;2023-03-15T14:07:44;11.27;;;4.60;;
3647;SDS011;1840;48.892;15.312;2023-03-15T14:10:21;10.90;;;5.40;;
3647;SDS011;1840;48.892;15.312;2023-03-15T14:12:58;6.40;;;2.33;;
3647;SDS011;1840;48.892;15.312;2023-03-15T14:15:47;6.73;;;2.23;;
3647;SDS011;1840;48.892;15.312;2023-03-15T14:18:16;9.13;;;2.33;;
3647;SDS011;1840;48.892;15.312;2023-03-15T14:20:51;7.10;;;2.13;;
3647;SDS011;1840;48.892;15.312;2023-03-15T14:23:23;4.90;;;1.73;;
3647;SDS011;1840;48.892;15.312;2023-03-15T14:25:53;4.70;;;1.50;;
3647;SDS011;1840;48.892;15.312;2023-03-15T14:28:24;4.17;;;1.70;;
3647;SDS011;1840;48.892;15.312;2023-03-15T14:30:54;4.80;;;1.67;;
3647;SDS011;1840;48.892;15.312;2023-03-15T14:33:27;8.47;;;2.20;;
3647;SDS011;1840;48.892;15.312;2023-03-15T14:35:59;5.30;;;2.37;;
3647;SDS011;1840;48.892;15.312;2023-03-15T14:38:33;5.37;;;1.50;;
3647;SDS011;1840;48.892;15.312;2023-03-15T14:41:09;6.73;;;1.87;;
3647;SDS011;1840;48.892;15.312;2023-03-15T14:43:45;7.53;;;2.17;;
3647;SDS011;1840;48.892;15.312;2023-03-15T14:46:13;6.10;;;1.83;;
3647;SDS011;1840;48.892;15.312;2023-03-15T14:48:41;4.87;;;1.97;;
3647;SDS011;1840;48.892;15.312;2023-03-15T14:51:11;5.17;;;1.47;;
3647;SDS011;1840;48.892;15.312;2023-03-15T14:53:42;8.83;;;1.80;;
3647;SDS011;1840;48.892;15.312;2023-03-15T14:56:11;4.70;;;1.40;;
3647;SDS011;1840;48.892;15.312;2023-03-15T14:58:40;5.83;;;1.70;;
3647;SDS011;1840;48.892;15.312;2023-03-15T15:01:10;5.03;;;1.70;;
3647;SDS011;1840;48.892;15.312;2023-03-15T15:03:42;4.93;;;1.60;;
3647;SDS011;1840;48.892;15.312;2023-03-15T15:06:14;4.83;;;2.20;;
3647;SDS011;1840;48.892;15.312;2023-03-15T15:08:43;4.83;;;1.47;;
3647;SDS011;1840;48.892;15.312;2023-03-15T15:11:13;4.10;;;1.60;;
3647;SDS011;1840;48.892;15.312;2023-03-15T15:13:41;3.80;;;1.47;;
3647;SDS011;1840;48.892;15.312;2023-03-15T15:16:11;4.23;;;1.77;;
3647;SDS011;1840;48.892;15.312;2023-03-15T15:18:39;4.43;;;2.20;;
3647;SDS011;1840;48.892;15.312;2023-03-15T15:21:10;3.80;;;1.80;;
3647;SDS011;1840;48.892;15.312;2023-03-15T15:23:40;6.17;;;1.80;;
3647;SDS011;1840;48.892;15.312;2023-03-15T15:26:24;4.17;;;1.67;;
3647;SDS011;1840;48.892;15.312;2023-03-15T15:28:54;9.97;;;2.10;;
3647;SDS011;1840;48.892;15.312;2023-03-15T15:31:25;8.43;;;2.10;;
3647;SDS011;1840;48.892;15.312;2023-03-15T15:33:55;6.30;;;2.07;;
3647;SDS011;1840;48.892;15.312;2023-03-15T15:36:24;4.30;;;1.73;;